Time;durP1;ratioP1;P1;durP2;ratioP2;P2;SDS_P1;SDS_P2;PMS_P1;PMS_P2;Temp;Humidity;BMP_temperature;BMP_pressure;BME280_temperature;BME280_humidity;BME280_pressure;Samples;Min_cycle;Max_cycle;Signal;HPM_P1;HPM_P2
2022/04/05 00:02:06;;;;;;;6.65;4.40;;;;;;;;;;7405896;19;20462;-79
2022/04/05 00:04:32;;;;;;;6.85;4.15;;;;;;;;;;7401636;19;20347;-79
2022/04/05 00:06:57;;;;;;;6.30;3.80;;;;;;;;;;7404864;19;20018;-79
2022/04/05 00:09:22;;;;;;;7.18;4.30;;;;;;;;;;7401190;19;20031;-79
2022/04/05 00:11:47;;;;;;;9.45;3.72;;;;;;;;;;7402281;19;20021;-78
2022/04/05 00:14:13;;;;;;;4.35;3.33;;;;;;;;;;7400908;19;20017;-78
2022/04/05 00:16:38;;;;;;;5.55;3.67;;;;;;;;;;7401625;19;20006;-78
2022/04/05 00:19:03;;;;;;;5.28;3.30;;;;;;;;;;7401013;19;20443;-79
2022/04/05 00:21:28;;;;;;;6.47;3.95;;;;;;;;;;7402827;19;20003;-79
2022/04/05 00:23:54;;;;;;;4.93;3.15;;;;;;;;;;7400459;19;20010;-79
2022/04/05 00:26:19;;;;;;;8.20;4.32;;;;;;;;;;7403453;19;20011;-80
2022/04/05 00:28:44;;;;;;;7.20;3.70;;;;;;;;;;7397200;19;20731;-79
2022/04/05 00:31:09;;;;;;;9.15;3.70;;;;;;;;;;7401070;19;20014;-81
2022/04/05 00:33:35;;;;;;;6.53;3.80;;;;;;;;;;7395933;19;20014;-81
2022/04/05 00:36:00;;;;;;;7.10;3.75;;;;;;;;;;7399386;19;20013;-80
2022/04/05 00:38:25;;;;;;;4.75;3.10;;;;;;;;;;7397863;19;20017;-81
2022/04/05 00:40:51;;;;;;;6.03;3.33;;;;;;;;;;7398303;19;20035;-79
2022/04/05 00:43:16;;;;;;;4.97;3.25;;;;;;;;;;7396790;19;20003;-81
2022/04/05 00:45:41;;;;;;;6.78;3.25;;;;;;;;;;7399343;19;20010;-79
2022/04/05 00:48:07;;;;;;;7.82;4.47;;;;;;;;;;7398128;19;20054;-80
2022/04/05 00:50:36;;;;;;;5.00;3.70;;;;;;;;;;7398364;19;20535;-79
2022/04/05 00:53:05;;;;;;;4.13;2.67;;;;;;;;;;7399372;19;20014;-79
2022/04/05 00:55:31;;;;;;;4.10;2.70;;;;;;;;;;7398303;19;20018;-78
2022/04/05 00:57:57;;;;;;;6.65;3.75;;;;;;;;;;7401713;19;20078;-79
2022/04/05 01:00:23;;;;;;;5.95;3.83;;;;;;;;;;7399830;19;20438;-79
2022/04/05 01:02:52;;;;;;;4.10;2.92;;;;;;;;;;7399727;19;20010;-79
2022/04/05 01:05:18;;;;;;;6.95;3.38;;;;;;;;;;7398785;19;20573;-83
2022/04/05 01:07:46;;;;;;;5.75;3.40;;;;;;;;;;7400267;19;20455;-82
2022/04/05 01:10:12;;;;;;;6.25;3.08;;;;;;;;;;7399131;19;20013;-80
2022/04/05 01:12:38;;;;;;;5.90;3.22;;;;;;;;;;7399094;19;20019;-79
2022/04/05 01:15:05;;;;;;;6.28;4.22;;;;;;;;;;7401735;19;20046;-81
2022/04/05 01:17:31;;;;;;;4.20;2.75;;;;;;;;;;7399069;19;20690;-83
2022/04/05 01:19:56;;;;;;;7.03;2.95;;;;;;;;;;7396867;19;21154;-81
2022/04/05 01:22:21;;;;;;;8.05;4.07;;;;;;;;;;7398673;19;20045;-81
2022/04/05 01:24:47;;;;;;;4.65;2.75;;;;;;;;;;7398595;19;20009;-83
2022/04/05 01:27:19;;;;;;;5.45;3.42;;;;;;;;;;7398654;19;20480;-82
2022/04/05 01:29:45;;;;;;;7.10;3.35;;;;;;;;;;7396963;19;20030;-80
2022/04/05 01:32:10;;;;;;;4.72;3.05;;;;;;;;;;7399258;19;20015;-81
2022/04/05 01:34:37;;;;;;;4.40;2.70;;;;;;;;;;7398105;19;20001;-80
2022/04/05 01:37:05;;;;;;;8.48;2.97;;;;;;;;;;7396223;19;20021;-80
2022/04/05 01:39:34;;;;;;;5.80;3.08;;;;;;;;;;7397136;19;20023;-80
2022/04/05 01:42:05;;;;;;;4.43;2.72;;;;;;;;;;7399332;19;20122;-81
2022/04/05 01:44:32;;;;;;;3.72;2.45;;;;;;;;;;7398048;19;20002;-82
2022/04/05 01:47:27;;;;;;;4.38;3.00;;;;;;;;;;7396696;19;20040;-82
2022/04/05 01:49:53;;;;;;;4.22;3.30;;;;;;;;;;7391827;19;20014;-82
2022/04/05 01:52:18;;;;;;;5.85;3.00;;;;;;;;;;7400447;19;20350;-79
2022/04/05 01:54:45;;;;;;;4.70;3.05;;;;;;;;;;7400671;19;20027;-79
2022/04/05 01:57:11;;;;;;;3.60;2.67;;;;;;;;;;7398631;19;20014;-80
2022/04/05 01:59:38;;;;;;;3.90;2.63;;;;;;;;;;7399206;19;20077;-80
2022/04/05 02:02:08;;;;;;;7.28;3.50;;;;;;;;;;7398337;19;20003;-82
2022/04/05 02:04:34;;;;;;;3.72;2.58;;;;;;;;;;7397479;19;20058;-82
2022/04/05 02:06:59;;;;;;;4.38;2.88;;;;;;;;;;7399477;19;20002;-82
2022/04/05 02:09:25;;;;;;;4.28;2.70;;;;;;;;;;7396569;19;20006;-82
2022/04/05 02:11:53;;;;;;;4.57;2.88;;;;;;;;;;7400317;19;20074;-81
2022/04/05 02:14:18;;;;;;;3.85;3.05;;;;;;;;;;7401786;19;20017;-83
2022/04/05 02:16:43;;;;;;;4.88;3.05;;;;;;;;;;7396562;19;20015;-83
2022/04/05 02:19:09;;;;;;;5.00;3.10;;;;;;;;;;7398660;19;20017;-81
2022/04/05 02:21:34;;;;;;;7.35;3.90;;;;;;;;;;7400834;19;20382;-82
2022/04/05 02:23:59;;;;;;;6.43;3.40;;;;;;;;;;7400788;19;20049;-80
2022/04/05 02:26:25;;;;;;;6.35;3.10;;;;;;;;;;7398063;19;20425;-80
2022/04/05 02:28:51;;;;;;;5.82;3.20;;;;;;;;;;7397363;19;20010;-81
2022/04/05 02:31:16;;;;;;;5.10;3.20;;;;;;;;;;7400496;19;20014;-81
2022/04/05 02:33:42;;;;;;;4.20;2.40;;;;;;;;;;7399675;19;20031;-82
2022/04/05 02:36:08;;;;;;;10.07;3.42;;;;;;;;;;7398019;19;20002;-80
2022/04/05 02:38:34;;;;;;;5.28;3.20;;;;;;;;;;7400448;19;20022;-81
2022/04/05 02:41:01;;;;;;;4.25;2.72;;;;;;;;;;7403674;19;20022;-80
2022/04/05 02:43:27;;;;;;;6.15;2.78;;;;;;;;;;7402405;19;20014;-82
2022/04/05 02:45:55;;;;;;;8.07;2.80;;;;;;;;;;7400842;19;20468;-81
2022/04/05 02:48:21;;;;;;;5.93;3.10;;;;;;;;;;7399914;19;20523;-81
2022/04/05 02:50:46;;;;;;;3.50;2.42;;;;;;;;;;7403244;19;20002;-81
2022/04/05 02:53:11;;;;;;;5.60;2.60;;;;;;;;;;7399026;19;20039;-81
2022/04/05 02:55:37;;;;;;;4.32;2.75;;;;;;;;;;7402676;19;20002;-80
2022/04/05 02:58:02;;;;;;;4.88;2.88;;;;;;;;;;7401501;19;20417;-81
2022/04/05 03:00:28;;;;;;;3.65;2.65;;;;;;;;;;7403153;19;20003;-81
2022/04/05 03:02:54;;;;;;;5.32;3.00;;;;;;;;;;7408791;19;20014;-80
2022/04/05 03:05:21;;;;;;;5.60;2.95;;;;;;;;;;7423683;19;20009;-81
2022/04/05 03:07:46;;;;;;;4.75;2.92;;;;;;;;;;7412197;19;20030;-80
2022/04/05 03:10:12;;;;;;;4.18;2.65;;;;;;;;;;7414846;19;20018;-78
2022/04/05 03:12:38;;;;;;;5.32;2.75;;;;;;;;;;7422498;19;20021;-79
2022/04/05 03:15:06;;;;;;;4.75;2.85;;;;;;;;;;7411121;19;20019;-79
2022/04/05 03:17:32;;;;;;;4.68;2.80;;;;;;;;;;7397339;19;20009;-78
2022/04/05 03:19:59;;;;;;;4.93;2.45;;;;;;;;;;7396144;19;20455;-80
2022/04/05 03:22:24;;;;;;;4.05;2.50;;;;;;;;;;7397534;19;20007;-79
2022/04/05 03:24:49;;;;;;;8.55;3.33;;;;;;;;;;7398497;19;20447;-79
2022/04/05 03:27:14;;;;;;;6.55;3.03;;;;;;;;;;7397514;19;20473;-83
2022/04/05 03:29:40;;;;;;;5.18;2.95;;;;;;;;;;7392112;19;19995;-81
2022/04/05 03:32:05;;;;;;;7.75;2.88;;;;;;;;;;7394358;19;20343;-81
2022/04/05 03:34:31;;;;;;;4.65;2.72;;;;;;;;;;7391983;19;20470;-81
2022/04/05 03:36:56;;;;;;;8.23;2.67;;;;;;;;;;7390683;19;20378;-80
2022/04/05 03:39:22;;;;;;;4.53;2.80;;;;;;;;;;7392835;19;20568;-79
2022/04/05 03:41:47;;;;;;;4.15;2.90;;;;;;;;;;7400186;19;20027;-80
2022/04/05 03:44:13;;;;;;;4.70;2.47;;;;;;;;;;7394040;19;20031;-77
2022/04/05 03:46:38;;;;;;;4.32;2.67;;;;;;;;;;7394803;19;20027;-78
2022/04/05 03:49:04;;;;;;;4.55;2.60;;;;;;;;;;7399076;19;20010;-80
2022/04/05 03:51:29;;;;;;;5.30;2.67;;;;;;;;;;7396878;19;20013;-83
2022/04/05 03:53:55;;;;;;;5.47;2.70;;;;;;;;;;7396487;19;20022;-80
2022/04/05 03:56:21;;;;;;;3.42;2.30;;;;;;;;;;7397021;19;20014;-80
2022/04/05 03:58:48;;;;;;;4.47;2.65;;;;;;;;;;7395829;19;20014;-81
2022/04/05 04:01:14;;;;;;;5.07;2.53;;;;;;;;;;7399157;19;20007;-81
2022/04/05 04:03:39;;;;;;;3.78;2.58;;;;;;;;;;7396974;19;20354;-80
2022/04/05 04:06:05;;;;;;;4.30;2.40;;;;;;;;;;7400982;19;20014;-80
2022/04/05 04:08:30;;;;;;;4.35;2.83;;;;;;;;;;7397818;19;20018;-81
2022/04/05 04:10:55;;;;;;;4.63;2.40;;;;;;;;;;7394587;19;20006;-82
2022/04/05 04:13:21;;;;;;;3.15;2.42;;;;;;;;;;7400689;19;20003;-81
2022/04/05 04:15:46;;;;;;;3.97;2.60;;;;;;;;;;7399066;19;20505;-81
2022/04/05 04:18:11;;;;;;;4.72;2.40;;;;;;;;;;7399368;19;19995;-80
2022/04/05 04:20:42;;;;;;;5.10;2.50;;;;;;;;;;7404577;19;20349;-80
2022/04/05 04:23:08;;;;;;;2.50;2.05;;;;;;;;;;7404687;19;20099;-80
2022/04/05 04:25:34;;;;;;;5.85;2.47;;;;;;;;;;7402243;19;20018;-80
2022/04/05 04:28:00;;;;;;;4.20;2.35;;;;;;;;;;7401489;19;20624;-79
2022/04/05 04:30:25;;;;;;;3.97;2.30;;;;;;;;;;7402654;19;20012;-80
2022/04/05 04:32:51;;;;;;;3.63;2.42;;;;;;;;;;7401122;19;20115;-82
2022/04/05 04:35:16;;;;;;;5.20;3.22;;;;;;;;;;7400129;19;20015;-82
2022/04/05 04:37:41;;;;;;;3.88;3.00;;;;;;;;;;7402105;19;20386;-82
2022/04/05 04:40:07;;;;;;;3.63;2.63;;;;;;;;;;7403746;19;20013;-80
2022/04/05 04:42:33;;;;;;;4.82;3.03;;;;;;;;;;7396942;19;20007;-81
2022/04/05 04:44:59;;;;;;;4.03;2.67;;;;;;;;;;7399819;19;20014;-81
2022/04/05 04:47:25;;;;;;;4.07;2.30;;;;;;;;;;7401357;19;20027;-80
2022/04/05 04:49:50;;;;;;;5.15;2.88;;;;;;;;;;7399016;19;19998;-82
2022/04/05 04:52:15;;;;;;;3.20;2.25;;;;;;;;;;7403199;19;20030;-81
2022/04/05 04:54:41;;;;;;;3.90;2.00;;;;;;;;;;7399404;19;20118;-81
2022/04/05 04:57:06;;;;;;;4.07;2.90;;;;;;;;;;7394834;19;20513;-83
2022/04/05 04:59:31;;;;;;;5.95;3.20;;;;;;;;;;7399487;19;20124;-81
2022/04/05 05:01:56;;;;;;;4.65;2.78;;;;;;;;;;7400917;19;19998;-83
2022/04/05 05:04:22;;;;;;;7.65;3.40;;;;;;;;;;7399459;19;20013;-80
2022/04/05 05:06:47;;;;;;;4.35;2.90;;;;;;;;;;7392866;19;20465;-80
2022/04/05 05:09:12;;;;;;;5.65;3.10;;;;;;;;;;7395251;19;20048;-80
2022/04/05 05:11:38;;;;;;;3.95;2.80;;;;;;;;;;7398368;19;20005;-78
2022/04/05 05:14:03;;;;;;;6.97;2.90;;;;;;;;;;7393836;19;20003;-79
2022/04/05 05:16:28;;;;;;;5.18;2.85;;;;;;;;;;7398479;19;20011;-81
2022/04/05 05:18:54;;;;;;;4.63;2.75;;;;;;;;;;7399379;19;20010;-80
2022/04/05 05:21:19;;;;;;;5.85;3.55;;;;;;;;;;7402594;19;20042;-79
2022/04/05 05:23:45;;;;;;;6.32;3.53;;;;;;;;;;7397430;19;20002;-79
2022/04/05 05:26:11;;;;;;;6.15;3.97;;;;;;;;;;7397233;19;19999;-79
2022/04/05 05:28:36;;;;;;;4.22;2.88;;;;;;;;;;7392784;19;20407;-79
2022/04/05 05:31:02;;;;;;;4.32;2.90;;;;;;;;;;7395178;19;20123;-80
2022/04/05 05:33:27;;;;;;;4.38;3.30;;;;;;;;;;7391339;19;20003;-78
2022/04/05 05:35:52;;;;;;;5.75;3.13;;;;;;;;;;7394881;19;20009;-80
2022/04/05 05:38:18;;;;;;;5.32;3.20;;;;;;;;;;7395939;19;20003;-80
2022/04/05 05:40:43;;;;;;;6.00;3.75;;;;;;;;;;7398595;19;20544;-81
2022/04/05 05:43:09;;;;;;;7.18;3.30;;;;;;;;;;7394846;19;20014;-81
2022/04/05 05:45:35;;;;;;;3.97;2.72;;;;;;;;;;7405067;19;20007;-82
2022/04/05 05:48:01;;;;;;;7.78;3.63;;;;;;;;;;7401532;19;20002;-82
2022/04/05 05:50:27;;;;;;;7.15;4.05;;;;;;;;;;7398175;19;20005;-80
2022/04/05 05:52:52;;;;;;;4.57;2.80;;;;;;;;;;7403197;19;20014;-83
2022/04/05 05:55:19;;;;;;;7.10;3.50;;;;;;;;;;7403994;19;20003;-84
2022/04/05 05:57:45;;;;;;;6.10;3.38;;;;;;;;;;7403286;19;20035;-83
2022/04/05 06:00:17;;;;;;;5.57;3.58;;;;;;;;;;7397527;19;20342;-83
2022/04/05 06:02:43;;;;;;;5.30;3.25;;;;;;;;;;7395788;19;20022;-83
2022/04/05 06:05:09;;;;;;;5.60;3.33;;;;;;;;;;7393528;19;20493;-84
2022/04/05 06:07:35;;;;;;;5.63;3.40;;;;;;;;;;7398479;19;20014;-82
2022/04/05 06:10:29;;;;;;;8.55;3.13;;;;;;;;;;7394863;19;20002;-82
2022/04/05 06:12:55;;;;;;;5.22;3.28;;;;;;;;;;7388952;19;19999;-81
2022/04/05 06:15:22;;;;;;;7.53;3.20;;;;;;;;;;7385438;19;20003;-81
2022/04/05 06:17:48;;;;;;;9.25;3.17;;;;;;;;;;7386885;19;20009;-82
2022/04/05 06:20:16;;;;;;;6.35;3.55;;;;;;;;;;7389923;19;20492;-82
2022/04/05 06:22:48;;;;;;;10.88;4.38;;;;;;;;;;7390725;19;20430;-82
2022/04/05 06:25:17;;;;;;;7.53;3.42;;;;;;;;;;7389421;19;20037;-82
2022/04/05 06:27:43;;;;;;;7.13;3.42;;;;;;;;;;7391300;19;20010;-81
2022/04/05 06:30:09;;;;;;;5.80;4.05;;;;;;;;;;7392094;19;19998;-81
2022/04/05 06:32:35;;;;;;;5.82;3.10;;;;;;;;;;7389227;19;20023;-82
2022/04/05 06:35:05;;;;;;;6.60;3.72;;;;;;;;;;7391045;19;20058;-82
2022/04/05 06:37:31;;;;;;;7.38;4.00;;;;;;;;;;7391313;19;19991;-81
2022/04/05 06:39:56;;;;;;;6.00;3.60;;;;;;;;;;7389267;19;20009;-81
2022/04/05 06:42:22;;;;;;;5.88;3.55;;;;;;;;;;7390004;19;20480;-82
2022/04/05 06:44:47;;;;;;;6.65;3.53;;;;;;;;;;7390700;19;20043;-81
2022/04/05 06:47:12;;;;;;;8.70;4.63;;;;;;;;;;7394760;19;20485;-81
2022/04/05 06:49:38;;;;;;;7.40;3.63;;;;;;;;;;7391766;19;20015;-80
2022/04/05 06:52:04;;;;;;;6.38;3.67;;;;;;;;;;7395002;19;20031;-81
2022/04/05 06:54:29;;;;;;;6.30;3.63;;;;;;;;;;7395694;19;19998;-81
2022/04/05 06:56:55;;;;;;;6.65;4.28;;;;;;;;;;7394243;19;20058;-81
2022/04/05 06:59:20;;;;;;;5.22;3.40;;;;;;;;;;7389264;19;20023;-81
2022/04/05 07:01:46;;;;;;;6.85;3.67;;;;;;;;;;7392230;19;20005;-82
2022/04/05 07:04:11;;;;;;;6.97;3.72;;;;;;;;;;7390180;19;20006;-83
2022/04/05 07:06:36;;;;;;;9.45;3.63;;;;;;;;;;7391462;19;20017;-82
2022/04/05 07:09:02;;;;;;;6.47;3.78;;;;;;;;;;7395327;19;20510;-79
2022/04/05 07:11:27;;;;;;;6.72;4.03;;;;;;;;;;7391936;19;20010;-80
2022/04/05 07:13:52;;;;;;;7.05;4.10;;;;;;;;;;7398231;19;20325;-82
2022/04/05 07:16:18;;;;;;;6.55;3.72;;;;;;;;;;7397900;19;20070;-80
2022/04/05 07:18:44;;;;;;;6.50;4.07;;;;;;;;;;7397811;19;20343;-80
2022/04/05 07:21:09;;;;;;;5.03;3.38;;;;;;;;;;7402989;19;20466;-82
2022/04/05 07:23:36;;;;;;;5.40;3.67;;;;;;;;;;7401603;19;20362;-80
2022/04/05 07:26:02;;;;;;;5.35;3.28;;;;;;;;;;7404591;19;20011;-81
2022/04/05 07:28:27;;;;;;;5.32;3.67;;;;;;;;;;7398592;19;20008;-82
2022/04/05 07:30:52;;;;;;;7.00;3.72;;;;;;;;;;7397655;19;20023;-80
2022/04/05 07:33:18;;;;;;;5.97;3.63;;;;;;;;;;7399452;19;20010;-82
2022/04/05 07:35:44;;;;;;;6.63;3.40;;;;;;;;;;7398200;19;20002;-81
2022/04/05 07:38:09;;;;;;;9.15;4.10;;;;;;;;;;7402590;19;20013;-78
2022/04/05 07:40:49;;;;;;;5.93;3.78;;;;;;;;;;7402114;19;20077;-81
2022/04/05 07:43:20;;;;;;;6.55;4.15;;;;;;;;;;7401935;19;20074;-78
2022/04/05 07:45:48;;;;;;;4.25;3.08;;;;;;;;;;7401053;19;20003;-80
2022/04/05 07:48:17;;;;;;;4.85;3.28;;;;;;;;;;7398368;19;20070;-78
2022/04/05 07:50:43;;;;;;;6.35;3.67;;;;;;;;;;7395684;19;20501;-82
2022/04/05 07:53:08;;;;;;;6.38;3.95;;;;;;;;;;7396273;19;19999;-78
2022/04/05 07:55:34;;;;;;;7.50;3.85;;;;;;;;;;7393651;19;20495;-79
2022/04/05 07:57:59;;;;;;;6.60;4.00;;;;;;;;;;7396983;19;20438;-82
2022/04/05 08:00:26;;;;;;;6.88;3.95;;;;;;;;;;7395166;19;20078;-82
2022/04/05 08:02:52;;;;;;;5.43;3.38;;;;;;;;;;7394004;19;20019;-81
2022/04/05 08:05:17;;;;;;;6.55;3.28;;;;;;;;;;7396506;19;20485;-78
2022/04/05 08:07:43;;;;;;;6.28;3.50;;;;;;;;;;7393790;19;20162;-79
2022/04/05 08:10:09;;;;;;;8.07;3.70;;;;;;;;;;7392122;19;20023;-80
2022/04/05 08:12:39;;;;;;;3.58;2.70;;;;;;;;;;7391696;19;20027;-80
2022/04/05 08:15:05;;;;;;;5.47;3.40;;;;;;;;;;7393311;19;20488;-81
2022/04/05 08:17:30;;;;;;;6.72;3.22;;;;;;;;;;7390973;19;20153;-81
2022/04/05 08:19:55;;;;;;;8.02;3.42;;;;;;;;;;7394064;19;20579;-81
2022/04/05 08:22:21;;;;;;;7.30;3.67;;;;;;;;;;7392690;19;20009;-80
2022/04/05 08:24:46;;;;;;;8.02;3.72;;;;;;;;;;7390554;19;20020;-81
2022/04/05 08:27:11;;;;;;;4.93;3.30;;;;;;;;;;7392602;19;20002;-81
2022/04/05 08:29:40;;;;;;;4.63;3.33;;;;;;;;;;7395851;19;20005;-81
2022/04/05 08:32:05;;;;;;;6.13;3.90;;;;;;;;;;7396686;19;19994;-80
2022/04/05 08:34:31;;;;;;;6.30;3.67;;;;;;;;;;7392745;19;20320;-81
2022/04/05 08:36:57;;;;;;;6.72;3.38;;;;;;;;;;7393687;19;20415;-81
2022/04/05 08:39:23;;;;;;;5.85;2.85;;;;;;;;;;7390349;19;19999;-81
2022/04/05 08:41:49;;;;;;;4.72;3.30;;;;;;;;;;7395253;19;20347;-79
2022/04/05 08:44:18;;;;;;;8.90;3.97;;;;;;;;;;7393655;19;20070;-79
2022/04/05 08:46:44;;;;;;;5.10;3.35;;;;;;;;;;7390583;19;20007;-80
2022/04/05 08:49:11;;;;;;;7.40;3.22;;;;;;;;;;7388584;19;20014;-80
2022/04/05 08:51:36;;;;;;;5.68;3.40;;;;;;;;;;7393053;19;20430;-80
2022/04/05 08:54:02;;;;;;;6.70;3.50;;;;;;;;;;7392364;19;20002;-80
2022/04/05 08:56:30;;;;;;;7.20;3.30;;;;;;;;;;7391366;19;20087;-80
2022/04/05 08:58:56;;;;;;;6.60;3.55;;;;;;;;;;7392683;19;20401;-80
2022/04/05 09:01:21;;;;;;;6.30;3.20;;;;;;;;;;7390451;19;19998;-78
2022/04/05 09:03:46;;;;;;;4.95;3.45;;;;;;;;;;7390420;19;20462;-80
2022/04/05 09:06:28;;;;;;;4.82;3.22;;;;;;;;;;7396176;19;20005;-80
2022/04/05 09:09:10;;;;;;;8.90;3.60;;;;;;;;;;7393588;19;20019;-79
2022/04/05 09:11:36;;;;;;;6.10;3.30;;;;;;;;;;7393970;19;20014;-82
2022/04/05 09:14:04;;;;;;;5.53;3.45;;;;;;;;;;7393146;19;20010;-82
2022/04/05 09:16:34;;;;;;;5.63;3.60;;;;;;;;;;7390930;19;20023;-81
2022/04/05 09:19:08;;;;;;;4.35;3.13;;;;;;;;;;7393325;19;20377;-80
2022/04/05 09:21:51;;;;;;;6.95;3.55;;;;;;;;;;7392939;19;20496;-82
2022/04/05 09:24:17;;;;;;;5.57;3.47;;;;;;;;;;7390892;19;20031;-80
2022/04/05 09:26:43;;;;;;;4.93;3.40;;;;;;;;;;7390985;19;20015;-80
2022/04/05 09:29:10;;;;;;;6.30;3.60;;;;;;;;;;7388716;19;20034;-83
2022/04/05 09:31:48;;;;;;;5.55;3.72;;;;;;;;;;7393125;19;20083;-78
2022/04/05 09:34:19;;;;;;;5.05;3.33;;;;;;;;;;7392991;19;20014;-81
2022/04/05 09:36:53;;;;;;;5.40;3.80;;;;;;;;;;7392246;19;20006;-81
2022/04/05 09:39:22;;;;;;;7.93;3.63;;;;;;;;;;7393955;19;20006;-82
2022/04/05 09:41:58;;;;;;;5.05;3.15;;;;;;;;;;7395611;19;20467;-83
2022/04/05 09:44:25;;;;;;;5.78;3.53;;;;;;;;;;7394444;19;20010;-81
2022/04/05 09:47:01;;;;;;;8.93;3.20;;;;;;;;;;7393812;19;19998;-82
2022/04/05 09:49:32;;;;;;;6.60;3.40;;;;;;;;;;7392783;19;20038;-82
2022/04/05 09:51:57;;;;;;;5.53;3.30;;;;;;;;;;7394382;19;20002;-81
2022/04/05 09:54:28;;;;;;;4.55;2.42;;;;;;;;;;7392698;19;20030;-81
2022/04/05 09:57:07;;;;;;;5.40;3.38;;;;;;;;;;7393401;19;20323;-80
2022/04/05 09:59:43;;;;;;;5.35;3.53;;;;;;;;;;7388646;19;20514;-82
2022/04/05 10:02:16;;;;;;;4.40;3.05;;;;;;;;;;7393250;19;20036;-83
2022/04/05 10:05:02;;;;;;;4.97;3.30;;;;;;;;;;7396602;19;20030;-79
2022/04/05 10:07:29;;;;;;;5.18;2.95;;;;;;;;;;7389323;19;20517;-79
2022/04/05 10:09:55;;;;;;;3.92;2.63;;;;;;;;;;7393044;19;20014;-80
2022/04/05 10:12:21;;;;;;;7.25;3.00;;;;;;;;;;7393956;19;20003;-81
2022/04/05 10:14:46;;;;;;;6.78;3.22;;;;;;;;;;7391815;19;19999;-80
2022/04/05 10:17:13;;;;;;;5.38;2.88;;;;;;;;;;7391442;19;20006;-78
2022/04/05 10:19:44;;;;;;;4.07;2.88;;;;;;;;;;7393113;19;20003;-80
2022/04/05 10:22:10;;;;;;;4.47;2.85;;;;;;;;;;7393288;19;20010;-80
2022/04/05 10:24:36;;;;;;;8.15;3.70;;;;;;;;;;7425097;19;20034;-79
2022/04/05 10:27:04;;;;;;;5.90;3.20;;;;;;;;;;7419678;19;20003;-80
2022/04/05 10:29:30;;;;;;;4.68;2.75;;;;;;;;;;7422386;19;20062;-80
2022/04/05 10:32:06;;;;;;;4.53;2.80;;;;;;;;;;7423928;19;20442;-80
2022/04/05 10:34:40;;;;;;;4.38;2.85;;;;;;;;;;7420945;19;20047;-80
2022/04/05 10:37:26;;;;;;;7.03;2.90;;;;;;;;;;7393582;19;20002;-80
2022/04/05 10:39:57;;;;;;;4.72;3.03;;;;;;;;;;7390941;19;20011;-81
2022/04/05 10:42:25;;;;;;;8.68;2.58;;;;;;;;;;7393865;19;20023;-79
2022/04/05 10:45:36;;;;;;;4.55;2.60;;;;;;;;;;7392324;19;20014;-80
2022/04/05 10:48:16;;;;;;;5.32;2.63;;;;;;;;;;7400907;19;20081;-80
2022/04/05 10:51:05;;;;;;;3.90;2.42;;;;;;;;;;7404307;19;20313;-82
2022/04/05 10:54:17;;;;;;;4.68;2.85;;;;;;;;;;7402744;19;20018;-80
2022/04/05 10:56:27;;;;;;;3.42;2.67;;;;;;;;;;7404764;19;20018;-82
2022/04/05 10:58:52;;;;;;;3.47;2.28;;;;;;;;;;7405135;19;20007;-81
2022/04/05 11:01:35;;;;;;;5.93;3.03;;;;;;;;;;7405855;19;20006;-81
2022/04/05 11:04:09;;;;;;;4.30;2.70;;;;;;;;;;7402873;19;20438;-81
2022/04/05 11:07:02;;;;;;;7.13;2.85;;;;;;;;;;7405574;19;20013;-81
2022/04/05 11:09:34;;;;;;;5.43;2.90;;;;;;;;;;7403296;19;20007;-81
2022/04/05 11:12:01;;;;;;;5.50;2.78;;;;;;;;;;7401520;19;20054;-81
2022/04/05 11:14:49;;;;;;;6.43;2.90;;;;;;;;;;7403771;19;20041;-81
2022/04/05 11:17:16;;;;;;;5.47;2.60;;;;;;;;;;7402598;19;20525;-81
2022/04/05 11:19:45;;;;;;;5.35;3.42;;;;;;;;;;7402886;19;19995;-81
2022/04/05 11:22:19;;;;;;;4.70;2.80;;;;;;;;;;7405118;19;20024;-82
2022/04/05 11:24:59;;;;;;;4.70;2.78;;;;;;;;;;7403644;19;20039;-82
2022/04/05 11:27:35;;;;;;;3.40;2.70;;;;;;;;;;7405021;19;20035;-81
2022/04/05 11:30:28;;;;;;;4.38;2.42;;;;;;;;;;7403576;19;20013;-81
2022/04/05 11:33:06;;;;;;;4.97;2.78;;;;;;;;;;7402215;19;20021;-84
2022/04/05 11:35:43;;;;;;;4.05;2.80;;;;;;;;;;7403177;19;20025;-81
2022/04/05 11:38:18;;;;;;;4.63;2.63;;;;;;;;;;7405715;19;20018;-81
2022/04/05 11:40:51;;;;;;;4.68;3.05;;;;;;;;;;7406676;19;20451;-80
2022/04/05 11:43:24;;;;;;;3.20;2.33;;;;;;;;;;7403399;19;20430;-79
2022/04/05 11:45:51;;;;;;;4.32;2.60;;;;;;;;;;7404551;19;20020;-81
2022/04/05 11:48:19;;;;;;;5.28;3.15;;;;;;;;;;7404674;19;20010;-81
2022/04/05 11:50:45;;;;;;;4.85;3.13;;;;;;;;;;7405697;19;20392;-81
2022/04/05 11:53:24;;;;;;;3.33;2.83;;;;;;;;;;7399699;19;20013;-80
2022/04/05 11:56:14;;;;;;;5.57;2.95;;;;;;;;;;7403912;19;20014;-81
2022/04/05 11:58:42;;;;;;;4.93;2.78;;;;;;;;;;7397423;19;20093;-81
2022/04/05 12:01:11;;;;;;;4.68;3.03;;;;;;;;;;7395322;19;20046;-82
2022/04/05 12:03:47;;;;;;;7.07;2.80;;;;;;;;;;7396655;19;20446;-81
2022/04/05 12:06:17;;;;;;;4.70;3.05;;;;;;;;;;7393161;19;20011;-82
2022/04/05 12:08:42;;;;;;;4.10;2.22;;;;;;;;;;7392947;19;20007;-80
2022/04/05 12:11:07;;;;;;;5.68;3.60;;;;;;;;;;7391940;19;20915;-81
2022/04/05 12:13:36;;;;;;;4.07;2.58;;;;;;;;;;7394313;19;20058;-81
2022/04/05 12:16:06;;;;;;;3.85;2.72;;;;;;;;;;7394032;19;20153;-81
2022/04/05 12:18:31;;;;;;;6.90;2.55;;;;;;;;;;7398273;19;20006;-80
2022/04/05 12:21:01;;;;;;;3.88;2.47;;;;;;;;;;7394939;19;20006;-80
2022/04/05 12:23:33;;;;;;;4.05;2.22;;;;;;;;;;7393251;19;19998;-80
2022/04/05 12:26:02;;;;;;;3.53;2.30;;;;;;;;;;7396006;19;20035;-80
2022/04/05 12:28:28;;;;;;;5.75;2.03;;;;;;;;;;7395597;19;20010;-80
2022/04/05 12:31:03;;;;;;;3.05;2.40;;;;;;;;;;7392807;19;20011;-80
2022/04/05 12:33:28;;;;;;;6.05;2.13;;;;;;;;;;7396938;19;20010;-80
2022/04/05 12:35:53;;;;;;;4.40;2.53;;;;;;;;;;7393969;19;19987;-80
2022/04/05 12:38:18;;;;;;;2.92;2.10;;;;;;;;;;7395331;19;19995;-80
2022/04/05 12:40:44;;;;;;;4.68;2.35;;;;;;;;;;7397661;19;19994;-81
2022/04/05 12:43:16;;;;;;;4.63;2.20;;;;;;;;;;7396464;19;20014;-79
2022/04/05 12:45:42;;;;;;;5.70;2.42;;;;;;;;;;7398653;19;20041;-80
2022/04/05 12:48:18;;;;;;;3.92;2.80;;;;;;;;;;7397529;19;20002;-80
2022/04/05 12:50:49;;;;;;;4.40;2.70;;;;;;;;;;7397019;19;20396;-80
2022/04/05 12:53:24;;;;;;;7.47;3.17;;;;;;;;;;7400793;19;20027;-81
2022/04/05 12:56:01;;;;;;;2.80;2.38;;;;;;;;;;7395419;19;19995;-80
2022/04/05 12:58:38;;;;;;;4.70;2.22;;;;;;;;;;7399566;19;20015;-79
2022/04/05 13:01:23;;;;;;;3.22;2.28;;;;;;;;;;7399438;19;20168;-79
2022/04/05 13:03:56;;;;;;;2.92;2.38;;;;;;;;;;7397639;19;20444;-79
2022/04/05 13:06:27;;;;;;;5.88;2.58;;;;;;;;;;7399802;19;20210;-79
2022/04/05 13:09:06;;;;;;;2.88;2.28;;;;;;;;;;7394691;19;20018;-80
2022/04/05 13:11:33;;;;;;;4.30;2.50;;;;;;;;;;7400757;19;20010;-79
2022/04/05 13:14:12;;;;;;;5.22;2.28;;;;;;;;;;7395430;19;19999;-80
2022/04/05 13:16:38;;;;;;;7.72;2.88;;;;;;;;;;7399066;19;20600;-79
2022/04/05 13:19:12;;;;;;;5.72;2.55;;;;;;;;;;7396786;19;20381;-84
2022/04/05 13:21:43;;;;;;;3.85;2.20;;;;;;;;;;7398240;19;20458;-80
2022/04/05 13:24:11;;;;;;;2.72;2.15;;;;;;;;;;7394547;19;20042;-78
2022/04/05 13:26:59;;;;;;;3.95;2.40;;;;;;;;;;7398626;19;20010;-79
2022/04/05 13:29:26;;;;;;;4.35;2.30;;;;;;;;;;7401442;19;20031;-79
2022/04/05 13:31:55;;;;;;;2.83;2.10;;;;;;;;;;7399229;19;20015;-79
2022/04/05 13:34:24;;;;;;;5.82;2.38;;;;;;;;;;7398690;19;20007;-76
2022/04/05 13:36:54;;;;;;;2.55;2.03;;;;;;;;;;7394568;19;20607;-79
2022/04/05 13:39:21;;;;;;;5.97;2.30;;;;;;;;;;7395169;19;20018;-81
2022/04/05 13:41:46;;;;;;;5.15;2.35;;;;;;;;;;7395326;19;20039;-79
2022/04/05 13:44:12;;;;;;;3.85;2.08;;;;;;;;;;7395044;19;20457;-80
2022/04/05 13:46:38;;;;;;;3.85;2.25;;;;;;;;;;7397141;19;20006;-79
2022/04/05 13:49:06;;;;;;;5.10;2.40;;;;;;;;;;7398329;19;20030;-79
2022/04/05 13:51:32;;;;;;;6.95;2.10;;;;;;;;;;7394973;19;20682;-79
2022/04/05 13:53:57;;;;;;;4.28;2.40;;;;;;;;;;7394280;19;19990;-79
2022/04/05 13:56:23;;;;;;;4.22;2.30;;;;;;;;;;7395028;19;20003;-79
2022/04/05 13:58:48;;;;;;;5.90;2.60;;;;;;;;;;7396336;19;20432;-79
2022/04/05 14:01:14;;;;;;;2.75;2.00;;;;;;;;;;7396680;19;20015;-79
2022/04/05 14:03:39;;;;;;;4.40;2.30;;;;;;;;;;7396910;19;20024;-80
2022/04/05 14:06:05;;;;;;;7.40;2.38;;;;;;;;;;7393906;19;20348;-79
2022/04/05 14:08:31;;;;;;;3.20;2.22;;;;;;;;;;7395729;19;20438;-79
2022/04/05 14:10:56;;;;;;;3.42;2.35;;;;;;;;;;7398806;19;20007;-79
2022/04/05 14:13:21;;;;;;;3.67;2.28;;;;;;;;;;7399699;19;20027;-80
2022/04/05 14:15:47;;;;;;;3.17;2.28;;;;;;;;;;7394788;19;20320;-80
2022/04/05 14:18:12;;;;;;;4.07;2.30;;;;;;;;;;7397700;19;20062;-80
2022/04/05 14:20:37;;;;;;;7.97;2.75;;;;;;;;;;7397407;19;20006;-80
2022/04/05 14:23:02;;;;;;;3.15;2.25;;;;;;;;;;7393351;19;20015;-81
2022/04/05 14:25:28;;;;;;;5.60;2.70;;;;;;;;;;7398464;19;20018;-79
2022/04/05 14:27:53;;;;;;;4.78;2.33;;;;;;;;;;7396737;19;20003;-80
2022/04/05 14:30:18;;;;;;;4.20;2.30;;;;;;;;;;7395171;19;20008;-79
2022/04/05 14:32:44;;;;;;;2.30;2.10;;;;;;;;;;7397586;19;20041;-80
2022/04/05 14:35:09;;;;;;;2.80;2.00;;;;;;;;;;7400188;19;20014;-80
2022/04/05 14:37:34;;;;;;;3.88;2.40;;;;;;;;;;7394089;19;20458;-79
2022/04/05 14:40:00;;;;;;;3.17;2.22;;;;;;;;;;7395261;19;20035;-79
2022/04/05 14:42:25;;;;;;;2.60;2.10;;;;;;;;;;7398348;19;20137;-79
2022/04/05 14:44:50;;;;;;;3.17;2.28;;;;;;;;;;7394642;19;20001;-79
2022/04/05 14:47:16;;;;;;;3.33;2.38;;;;;;;;;;7392843;19;20003;-79
2022/04/05 14:49:41;;;;;;;2.28;1.98;;;;;;;;;;7391006;19;20816;-79